Time;durP1;ratioP1;P1;durP2;ratioP2;P2;SDS_P1;SDS_P2;PMS_P1;PMS_P2;Temp;Humidity;BMP_temperature;BMP_pressure;BME280_temperature;BME280_humidity;BME280_pressure;Samples;Min_cycle;Max_cycle;Signal;HPM_P1;HPM_P2
2024/01/06 00:02:21;;;;;;;13.75;9.68;;;;;;;;;;4969973;28;20047;-66
2024/01/06 00:04:47;;;;;;;14.85;10.73;;;;;;;;;;4969169;28;20130;-66
2024/01/06 00:07:14;;;;;;;15.82;11.05;;;;;;;;;;4970055;28;20572;-66
2024/01/06 00:09:40;;;;;;;16.38;11.38;;;;;;;;;;4971498;28;20501;-66
2024/01/06 00:12:06;;;;;;;14.60;11.35;;;;;;;;;;4977155;28;20115;-66
2024/01/06 00:14:32;;;;;;;17.23;12.35;;;;;;;;;;4991608;28;20046;-66
2024/01/06 00:16:58;;;;;;;15.98;11.65;;;;;;;;;;4984071;28;20093;-66
2024/01/06 00:19:24;;;;;;;17.30;13.00;;;;;;;;;;4973696;28;20043;-66
2024/01/06 00:21:50;;;;;;;16.55;11.73;;;;;;;;;;4973084;28;20046;-66
2024/01/06 00:24:16;;;;;;;19.63;13.30;;;;;;;;;;4972773;28;20042;-66
2024/01/06 00:26:42;;;;;;;16.20;12.20;;;;;;;;;;4973261;28;20046;-66
2024/01/06 00:29:08;;;;;;;17.15;11.88;;;;;;;;;;4973282;28;20645;-66
2024/01/06 00:31:34;;;;;;;18.65;13.02;;;;;;;;;;4973124;28;20035;-66
2024/01/06 00:34:00;;;;;;;15.40;11.07;;;;;;;;;;4973389;28;20039;-66
2024/01/06 00:36:26;;;;;;;17.20;12.07;;;;;;;;;;4955790;28;20496;-66
2024/01/06 00:38:52;;;;;;;17.02;12.27;;;;;;;;;;4973352;28;20097;-66
2024/01/06 00:41:18;;;;;;;19.88;13.60;;;;;;;;;;4974608;28;20070;-66
2024/01/06 00:43:44;;;;;;;18.15;13.13;;;;;;;;;;4972946;28;20038;-66
2024/01/06 00:46:10;;;;;;;18.70;13.30;;;;;;;;;;4972253;28;20739;-66
2024/01/06 00:48:36;;;;;;;18.02;12.15;;;;;;;;;;4972682;28;20089;-66
2024/01/06 00:51:02;;;;;;;20.63;14.27;;;;;;;;;;4973026;28;20035;-66
2024/01/06 00:53:28;;;;;;;21.73;14.60;;;;;;;;;;4984210;28;20053;-66
2024/01/06 00:55:54;;;;;;;27.15;17.27;;;;;;;;;;4991806;28;20042;-66
2024/01/06 00:58:20;;;;;;;24.40;15.95;;;;;;;;;;4973251;28;20525;-66
2024/01/06 01:00:46;;;;;;;24.58;17.13;;;;;;;;;;4978340;28;20105;-66
2024/01/06 01:03:12;;;;;;;24.67;15.43;;;;;;;;;;4992003;28;20053;-66
2024/01/06 01:05:38;;;;;;;22.90;15.52;;;;;;;;;;4978660;28;20054;-66
2024/01/06 01:08:04;;;;;;;25.58;15.13;;;;;;;;;;4972549;28;20035;-66
2024/01/06 01:10:30;;;;;;;25.58;16.33;;;;;;;;;;4972470;28;20074;-66
2024/01/06 01:12:56;;;;;;;23.40;15.35;;;;;;;;;;4980985;28;20070;-66
2024/01/06 01:15:22;;;;;;;23.83;15.35;;;;;;;;;;4972069;28;20722;-66
2024/01/06 01:17:48;;;;;;;26.65;16.45;;;;;;;;;;4982355;28;20049;-66
2024/01/06 01:20:14;;;;;;;25.05;16.55;;;;;;;;;;4972739;28;20043;-66
2024/01/06 01:22:40;;;;;;;27.20;17.08;;;;;;;;;;4991901;28;20048;-66
2024/01/06 01:25:08;;;;;;;28.90;17.35;;;;;;;;;;4982884;28;20043;-66
2024/01/06 01:27:36;;;;;;;27.77;16.75;;;;;;;;;;4972364;28;20042;-66
2024/01/06 01:30:03;;;;;;;29.75;17.70;;;;;;;;;;4972180;28;20050;-66
2024/01/06 01:32:29;;;;;;;27.38;16.67;;;;;;;;;;4974270;28;20464;-66
2024/01/06 01:34:55;;;;;;;27.75;17.42;;;;;;;;;;4971693;28;20043;-66
2024/01/06 01:37:21;;;;;;;28.98;17.85;;;;;;;;;;4981537;28;20771;-66
2024/01/06 01:39:47;;;;;;;29.08;17.95;;;;;;;;;;4991676;28;20133;-66
2024/01/06 01:42:13;;;;;;;29.75;17.92;;;;;;;;;;4974876;28;20101;-66
2024/01/06 01:44:39;;;;;;;28.23;17.73;;;;;;;;;;4971673;28;20070;-66
2024/01/06 01:47:05;;;;;;;28.88;16.58;;;;;;;;;;4971109;28;20038;-66
2024/01/06 01:49:32;;;;;;;26.70;17.02;;;;;;;;;;4971302;28;20042;-66
2024/01/06 01:51:58;;;;;;;28.27;16.52;;;;;;;;;;4971551;28;20078;-66
2024/01/06 01:54:24;;;;;;;27.58;16.67;;;;;;;;;;4971775;28;20074;-66
2024/01/06 01:56:51;;;;;;;26.50;16.85;;;;;;;;;;4971005;28;20039;-66
2024/01/06 01:59:19;;;;;;;28.95;16.30;;;;;;;;;;4971762;28;20077;-66
2024/01/06 02:01:46;;;;;;;27.95;16.42;;;;;;;;;;4971125;28;20142;-66
2024/01/06 02:04:13;;;;;;;29.30;17.77;;;;;;;;;;4971534;28;20050;-66
2024/01/06 02:06:39;;;;;;;26.23;16.25;;;;;;;;;;4970862;28;20043;-66
2024/01/06 02:09:05;;;;;;;26.45;15.73;;;;;;;;;;4971453;28;20038;-66
2024/01/06 02:11:31;;;;;;;26.30;16.15;;;;;;;;;;4975308;28;20118;-66
2024/01/06 02:13:57;;;;;;;26.77;16.25;;;;;;;;;;4977580;28;20138;-66
2024/01/06 02:16:23;;;;;;;24.73;15.80;;;;;;;;;;4971000;28;20070;-66
2024/01/06 02:18:49;;;;;;;24.45;15.27;;;;;;;;;;4971360;28;20046;-66
2024/01/06 02:21:15;;;;;;;24.45;15.10;;;;;;;;;;4971427;28;20371;-66
2024/01/06 02:23:41;;;;;;;24.45;14.70;;;;;;;;;;4971208;28;20524;-66
2024/01/06 02:26:07;;;;;;;21.58;13.27;;;;;;;;;;4970203;28;20050;-66
2024/01/06 02:28:33;;;;;;;18.55;13.35;;;;;;;;;;4971131;28;20504;-66
2024/01/06 02:30:59;;;;;;;18.38;13.20;;;;;;;;;;4971083;28;20042;-66
2024/01/06 02:33:25;;;;;;;20.38;12.77;;;;;;;;;;4974498;28;20047;-66
2024/01/06 02:35:51;;;;;;;21.00;13.38;;;;;;;;;;4970499;28;20038;-66
2024/01/06 02:38:17;;;;;;;21.13;13.68;;;;;;;;;;4986225;28;20039;-66
2024/01/06 02:40:43;;;;;;;21.75;14.25;;;;;;;;;;4987508;28;20049;-66
2024/01/06 02:43:10;;;;;;;22.55;14.80;;;;;;;;;;4970483;28;20177;-66
2024/01/06 02:45:36;;;;;;;20.45;13.13;;;;;;;;;;4970266;28;20042;-66
2024/01/06 02:48:02;;;;;;;22.33;14.75;;;;;;;;;;4970691;28;20592;-66
2024/01/06 02:50:28;;;;;;;22.77;14.85;;;;;;;;;;4987168;28;20488;-66
2024/01/06 02:52:54;;;;;;;21.98;13.95;;;;;;;;;;4986463;28;20043;-66
2024/01/06 02:55:20;;;;;;;21.05;13.50;;;;;;;;;;4970486;28;20507;-66
2024/01/06 02:57:46;;;;;;;19.67;12.43;;;;;;;;;;4970357;28;20043;-66
2024/01/06 03:00:12;;;;;;;17.92;11.43;;;;;;;;;;4970709;28;20050;-66
2024/01/06 03:02:41;;;;;;;18.38;12.80;;;;;;;;;;4970731;28;20464;-66
2024/01/06 03:05:08;;;;;;;18.55;12.25;;;;;;;;;;4970587;28;20193;-66
2024/01/06 03:07:34;;;;;;;22.98;14.27;;;;;;;;;;4969530;28;20513;-66
2024/01/06 03:10:00;;;;;;;20.00;13.70;;;;;;;;;;4970386;28;20393;-66
2024/01/06 03:12:26;;;;;;;21.80;14.30;;;;;;;;;;4972318;28;20131;-66
2024/01/06 03:14:52;;;;;;;24.17;14.27;;;;;;;;;;4989328;28;20049;-66
2024/01/06 03:17:18;;;;;;;24.83;15.30;;;;;;;;;;4983152;28;20053;-66
2024/01/06 03:19:45;;;;;;;21.77;14.50;;;;;;;;;;4969199;28;20561;-66
2024/01/06 03:22:10;;;;;;;24.88;14.70;;;;;;;;;;4970528;28;20045;-66
2024/01/06 03:24:36;;;;;;;26.08;14.30;;;;;;;;;;4970150;28;20050;-66
2024/01/06 03:27:03;;;;;;;25.08;15.50;;;;;;;;;;4969773;28;20100;-66
2024/01/06 03:29:29;;;;;;;22.58;14.43;;;;;;;;;;4970170;28;20682;-66
2024/01/06 03:31:55;;;;;;;29.33;16.33;;;;;;;;;;4970762;28;20039;-66
2024/01/06 03:34:21;;;;;;;26.38;16.02;;;;;;;;;;4975559;28;20098;-66
2024/01/06 03:36:47;;;;;;;28.95;16.17;;;;;;;;;;4970135;28;20085;-66
2024/01/06 03:39:13;;;;;;;30.95;16.33;;;;;;;;;;4969905;28;20394;-66
2024/01/06 03:41:39;;;;;;;27.55;16.42;;;;;;;;;;4969936;28;20050;-66
2024/01/06 03:44:05;;;;;;;25.63;15.43;;;;;;;;;;4972330;28;20039;-66
2024/01/06 03:46:32;;;;;;;26.35;15.13;;;;;;;;;;4975896;28;20108;-66
2024/01/06 03:48:57;;;;;;;27.42;15.50;;;;;;;;;;4973567;28;20155;-66
2024/01/06 03:51:24;;;;;;;24.52;15.77;;;;;;;;;;4973848;28;20117;-66
2024/01/06 03:53:50;;;;;;;26.77;15.85;;;;;;;;;;4973946;28;20039;-66
2024/01/06 03:56:15;;;;;;;24.90;15.35;;;;;;;;;;4973637;28;20082;-66
2024/01/06 03:58:41;;;;;;;24.60;15.23;;;;;;;;;;4979435;28;20125;-66
2024/01/06 04:01:07;;;;;;;29.67;16.08;;;;;;;;;;4973617;28;20136;-66
2024/01/06 04:03:33;;;;;;;26.45;16.52;;;;;;;;;;4974063;28;20058;-66
2024/01/06 04:05:59;;;;;;;25.55;16.25;;;;;;;;;;4972981;28;20039;-66
2024/01/06 04:08:25;;;;;;;25.50;15.43;;;;;;;;;;4972815;28;20369;-66
2024/01/06 04:10:51;;;;;;;27.05;16.02;;;;;;;;;;4973235;28;20061;-66
2024/01/06 04:13:17;;;;;;;22.55;14.05;;;;;;;;;;4987381;28;20097;-66
2024/01/06 04:15:44;;;;;;;25.10;15.30;;;;;;;;;;4973808;28;20038;-66
2024/01/06 04:18:10;;;;;;;25.38;15.00;;;;;;;;;;4972971;28;20053;-66
2024/01/06 04:20:36;;;;;;;25.30;14.13;;;;;;;;;;4973689;28;20081;-66
2024/01/06 04:23:02;;;;;;;27.05;15.05;;;;;;;;;;4991553;28;20057;-66
2024/01/06 04:25:28;;;;;;;25.02;14.63;;;;;;;;;;4986947;28;20039;-66
2024/01/06 04:27:54;;;;;;;25.15;13.57;;;;;;;;;;4972839;28;20481;-66
2024/01/06 04:30:20;;;;;;;26.42;14.98;;;;;;;;;;4985591;28;20046;-66
2024/01/06 04:32:48;;;;;;;25.27;15.27;;;;;;;;;;4985371;28;20031;-66
2024/01/06 04:35:14;;;;;;;21.67;13.43;;;;;;;;;;4973199;28;20078;-66
2024/01/06 04:37:40;;;;;;;28.00;15.55;;;;;;;;;;4973171;28;20046;-66
2024/01/06 04:40:07;;;;;;;25.75;14.57;;;;;;;;;;4972718;28;20497;-66
2024/01/06 04:42:33;;;;;;;21.42;13.40;;;;;;;;;;4972945;28;20043;-66
2024/01/06 04:44:59;;;;;;;22.85;14.13;;;;;;;;;;4972840;28;20513;-66
2024/01/06 04:47:27;;;;;;;23.65;13.68;;;;;;;;;;4972931;28;20035;-66
2024/01/06 04:49:53;;;;;;;21.80;12.93;;;;;;;;;;4966100;28;20050;-66
2024/01/06 04:52:19;;;;;;;18.85;13.85;;;;;;;;;;4973049;28;20047;-66
2024/01/06 04:54:45;;;;;;;22.15;13.55;;;;;;;;;;4972066;28;20389;-66
2024/01/06 04:57:11;;;;;;;25.45;13.80;;;;;;;;;;4975391;28;20051;-66
2024/01/06 04:59:37;;;;;;;19.08;12.90;;;;;;;;;;4991726;28;20074;-66
2024/01/06 05:02:04;;;;;;;20.85;12.63;;;;;;;;;;4982240;28;20663;-66
2024/01/06 05:04:32;;;;;;;24.88;14.55;;;;;;;;;;4972577;28;20035;-66
2024/01/06 05:06:58;;;;;;;23.88;13.52;;;;;;;;;;4988886;28;20049;-66
2024/01/06 05:09:24;;;;;;;22.52;12.98;;;;;;;;;;4987239;28;20446;-66
2024/01/06 05:11:50;;;;;;;23.65;13.68;;;;;;;;;;4974717;28;20039;-66
2024/01/06 05:14:16;;;;;;;22.80;12.98;;;;;;;;;;4972359;28;20046;-66
2024/01/06 05:16:42;;;;;;;22.17;12.80;;;;;;;;;;4972533;28;20085;-66
2024/01/06 05:19:08;;;;;;;24.77;14.05;;;;;;;;;;4972262;28;20050;-66
2024/01/06 05:21:34;;;;;;;22.27;13.60;;;;;;;;;;4972284;28;20034;-66
2024/01/06 05:24:00;;;;;;;23.88;12.95;;;;;;;;;;4972415;28;20181;-66
2024/01/06 05:26:26;;;;;;;23.33;13.57;;;;;;;;;;4972032;28;20157;-66
2024/01/06 05:28:52;;;;;;;24.55;14.55;;;;;;;;;;4971544;28;20508;-66
2024/01/06 05:31:19;;;;;;;22.92;13.55;;;;;;;;;;4972462;28;20066;-66
2024/01/06 05:33:45;;;;;;;25.55;13.80;;;;;;;;;;4981019;28;20042;-66
2024/01/06 05:36:11;;;;;;;22.42;12.85;;;;;;;;;;4972162;28;20050;-66
2024/01/06 05:38:37;;;;;;;25.83;13.57;;;;;;;;;;4971428;28;20042;-66
2024/01/06 05:41:03;;;;;;;19.05;11.80;;;;;;;;;;4972111;28;20049;-66
2024/01/06 05:43:29;;;;;;;22.40;13.30;;;;;;;;;;4972379;28;20506;-66
2024/01/06 05:45:55;;;;;;;22.13;13.23;;;;;;;;;;4978556;28;20085;-66
2024/01/06 05:48:21;;;;;;;23.70;13.90;;;;;;;;;;4980542;28;20070;-66
2024/01/06 05:50:47;;;;;;;23.52;13.50;;;;;;;;;;4971382;28;20119;-66
2024/01/06 05:53:14;;;;;;;24.55;12.93;;;;;;;;;;4971681;28;20493;-66
2024/01/06 05:55:40;;;;;;;23.33;12.82;;;;;;;;;;4971859;28;20394;-66
2024/01/06 05:58:06;;;;;;;22.35;13.38;;;;;;;;;;4979731;28;20072;-66
2024/01/06 06:00:32;;;;;;;19.80;12.27;;;;;;;;;;4990583;28;20054;-66
2024/01/06 06:02:58;;;;;;;21.60;13.07;;;;;;;;;;4976447;28;20670;-66
2024/01/06 06:05:24;;;;;;;22.35;13.10;;;;;;;;;;4953768;28;20054;-66
2024/01/06 06:07:50;;;;;;;22.60;12.90;;;;;;;;;;4971083;28;20078;-66
2024/01/06 06:10:18;;;;;;;21.08;13.50;;;;;;;;;;4970811;28;20408;-66
2024/01/06 06:12:44;;;;;;;20.75;13.35;;;;;;;;;;4973621;28;20125;-66
2024/01/06 06:15:10;;;;;;;22.35;13.90;;;;;;;;;;4987382;28;20042;-66
2024/01/06 06:17:36;;;;;;;24.05;14.45;;;;;;;;;;4987387;28;20050;-66
2024/01/06 06:20:03;;;;;;;25.02;14.57;;;;;;;;;;4970828;28;20049;-66
2024/01/06 06:22:32;;;;;;;22.67;13.13;;;;;;;;;;4971194;28;20049;-66
2024/01/06 06:24:58;;;;;;;24.92;13.23;;;;;;;;;;4971256;28;20109;-66
2024/01/06 06:27:24;;;;;;;23.05;13.45;;;;;;;;;;4970877;28;20041;-66
2024/01/06 06:29:50;;;;;;;20.85;13.27;;;;;;;;;;4970330;28;20094;-66
2024/01/06 06:32:16;;;;;;;22.95;14.13;;;;;;;;;;4974353;28;20038;-66
2024/01/06 06:34:43;;;;;;;21.10;13.60;;;;;;;;;;4978433;28;20039;-66
2024/01/06 06:37:09;;;;;;;21.27;13.50;;;;;;;;;;4971445;28;20430;-66
2024/01/06 06:39:35;;;;;;;22.55;13.82;;;;;;;;;;4970377;28;20050;-66
2024/01/06 06:42:01;;;;;;;20.15;12.35;;;;;;;;;;4970973;28;20038;-66
2024/01/06 06:44:28;;;;;;;22.60;12.82;;;;;;;;;;4970608;28;20643;-66
2024/01/06 06:46:54;;;;;;;21.05;12.65;;;;;;;;;;4969360;28;20046;-66
2024/01/06 06:49:20;;;;;;;20.77;12.60;;;;;;;;;;4970727;28;20065;-66
2024/01/06 06:51:48;;;;;;;20.92;13.23;;;;;;;;;;4970679;28;20094;-66
2024/01/06 06:54:15;;;;;;;20.98;12.85;;;;;;;;;;4970513;28;20081;-66
2024/01/06 06:56:41;;;;;;;21.13;12.85;;;;;;;;;;4970803;28;20050;-66
2024/01/06 06:59:07;;;;;;;24.02;13.70;;;;;;;;;;4985222;28;20061;-66
2024/01/06 07:01:34;;;;;;;24.27;14.18;;;;;;;;;;4987603;28;20059;-65
2024/01/06 07:04:00;;;;;;;22.08;13.30;;;;;;;;;;4970261;28;20078;-66
2024/01/06 07:06:26;;;;;;;23.88;13.55;;;;;;;;;;4979181;28;20073;-66
2024/01/06 07:08:52;;;;;;;20.75;13.27;;;;;;;;;;4989332;28;20496;-66
2024/01/06 07:11:19;;;;;;;22.00;13.13;;;;;;;;;;4975504;28;20043;-66
2024/01/06 07:13:45;;;;;;;21.40;13.50;;;;;;;;;;4986296;28;20113;-66
2024/01/06 07:16:11;;;;;;;23.63;15.07;;;;;;;;;;4970154;28;20070;-66
2024/01/06 07:18:37;;;;;;;22.98;13.60;;;;;;;;;;4970032;28;20074;-66
2024/01/06 07:21:06;;;;;;;22.98;14.43;;;;;;;;;;4970074;28;20082;-66
2024/01/06 07:23:33;;;;;;;19.52;12.95;;;;;;;;;;4970223;28;20077;-66
2024/01/06 07:25:59;;;;;;;19.88;13.80;;;;;;;;;;4968396;28;20051;-66
2024/01/06 07:28:25;;;;;;;20.92;13.57;;;;;;;;;;4969393;28;20027;-66
2024/01/06 07:30:51;;;;;;;17.95;11.93;;;;;;;;;;4969010;28;20043;-66
2024/01/06 07:33:17;;;;;;;18.73;12.70;;;;;;;;;;4981259;28;20042;-66
2024/01/06 07:35:43;;;;;;;21.73;13.45;;;;;;;;;;4970378;28;20046;-66
2024/01/06 07:38:10;;;;;;;17.95;12.55;;;;;;;;;;4969822;28;20173;-66
2024/01/06 07:40:36;;;;;;;17.27;12.77;;;;;;;;;;4969557;28;20039;-66
2024/01/06 07:43:02;;;;;;;19.95;12.57;;;;;;;;;;4982368;28;20050;-66
2024/01/06 07:45:28;;;;;;;21.27;13.27;;;;;;;;;;4989546;28;20046;-66
2024/01/06 07:47:54;;;;;;;16.90;11.80;;;;;;;;;;4970092;28;20035;-66
2024/01/06 07:50:20;;;;;;;18.52;12.43;;;;;;;;;;4969600;28;20045;-66
2024/01/06 07:52:46;;;;;;;18.92;12.50;;;;;;;;;;4970407;28;20381;-66
2024/01/06 07:55:12;;;;;;;17.02;11.45;;;;;;;;;;4969788;28;20121;-66
2024/01/06 07:57:38;;;;;;;22.67;12.43;;;;;;;;;;4970904;28;20413;-66
2024/01/06 08:00:04;;;;;;;17.25;12.32;;;;;;;;;;4989153;28;20066;-66
2024/01/06 08:02:30;;;;;;;16.15;11.25;;;;;;;;;;4981367;28;20046;-66
2024/01/06 08:04:56;;;;;;;16.80;12.20;;;;;;;;;;4969721;28;20062;-66
2024/01/06 08:07:23;;;;;;;16.40;11.40;;;;;;;;;;4969786;28;20039;-66
2024/01/06 08:09:49;;;;;;;19.05;12.23;;;;;;;;;;4969826;28;20045;-66
2024/01/06 08:12:16;;;;;;;15.60;11.32;;;;;;;;;;4971577;28;20035;-66
2024/01/06 08:14:42;;;;;;;16.58;11.38;;;;;;;;;;4969627;28;20130;-66
2024/01/06 08:17:08;;;;;;;19.23;12.57;;;;;;;;;;4970264;28;20138;-66
2024/01/06 08:19:35;;;;;;;17.33;12.52;;;;;;;;;;4970092;28;20129;-66
2024/01/06 08:22:01;;;;;;;17.58;12.52;;;;;;;;;;4969636;28;20045;-66
2024/01/06 08:24:27;;;;;;;19.20;12.07;;;;;;;;;;4969888;28;20034;-66
2024/01/06 08:26:53;;;;;;;16.73;12.10;;;;;;;;;;4969375;28;20077;-66
2024/01/06 08:29:19;;;;;;;19.13;12.95;;;;;;;;;;4963528;28;20043;-66
2024/01/06 08:31:46;;;;;;;19.67;12.93;;;;;;;;;;4986832;28;20042;-66
2024/01/06 08:34:11;;;;;;;16.70;11.82;;;;;;;;;;4978190;28;20091;-66
2024/01/06 08:36:38;;;;;;;17.17;11.75;;;;;;;;;;4992482;28;20129;-66
2024/01/06 08:39:04;;;;;;;19.05;12.20;;;;;;;;;;4981453;28;20432;-66
2024/01/06 08:41:30;;;;;;;17.33;11.77;;;;;;;;;;4972403;28;20042;-66
2024/01/06 08:43:56;;;;;;;17.00;11.32;;;;;;;;;;4991234;28;20049;-66
2024/01/06 08:46:22;;;;;;;20.77;12.32;;;;;;;;;;4986436;28;20050;-66
2024/01/06 08:48:48;;;;;;;17.38;11.88;;;;;;;;;;4955782;28;20050;-66
2024/01/06 08:51:14;;;;;;;19.92;12.82;;;;;;;;;;4982906;28;20412;-66
2024/01/06 08:53:40;;;;;;;18.50;12.95;;;;;;;;;;4992531;28;20113;-66
2024/01/06 08:56:06;;;;;;;19.45;13.02;;;;;;;;;;4971458;28;20046;-66
2024/01/06 08:58:32;;;;;;;19.35;13.27;;;;;;;;;;4961739;28;20050;-66
2024/01/06 09:00:59;;;;;;;16.73;11.68;;;;;;;;;;4991942;28;20104;-66
2024/01/06 09:03:25;;;;;;;17.20;12.15;;;;;;;;;;4978254;28;20398;-66
2024/01/06 09:05:55;;;;;;;17.05;11.98;;;;;;;;;;4972117;28;20077;-66
2024/01/06 09:08:22;;;;;;;14.70;10.45;;;;;;;;;;4972235;28;20066;-66
2024/01/06 09:10:51;;;;;;;17.65;12.10;;;;;;;;;;4972727;28;20046;-66
2024/01/06 09:13:17;;;;;;;20.33;11.23;;;;;;;;;;4973095;28;20045;-66
2024/01/06 09:15:43;;;;;;;16.20;11.60;;;;;;;;;;4987786;28;20424;-66
2024/01/06 09:18:09;;;;;;;17.10;12.23;;;;;;;;;;4989207;28;20054;-66
2024/01/06 09:20:35;;;;;;;17.02;12.13;;;;;;;;;;4971993;28;20047;-66
2024/01/06 09:23:01;;;;;;;18.55;11.88;;;;;;;;;;4971880;28;20405;-66
2024/01/06 09:25:27;;;;;;;19.48;12.82;;;;;;;;;;4972041;28;20113;-66
2024/01/06 09:27:53;;;;;;;17.17;11.73;;;;;;;;;;4971981;28;20679;-66
2024/01/06 09:30:19;;;;;;;19.38;12.68;;;;;;;;;;4971788;28;20393;-66
2024/01/06 09:32:45;;;;;;;19.23;13.50;;;;;;;;;;4979030;28;20043;-66
2024/01/06 09:35:11;;;;;;;19.77;13.98;;;;;;;;;;4980698;28;20043;-66
2024/01/06 09:37:37;;;;;;;18.45;13.25;;;;;;;;;;4971939;28;20082;-66
2024/01/06 09:40:03;;;;;;;20.00;12.90;;;;;;;;;;4971858;28;20482;-66
2024/01/06 09:42:29;;;;;;;18.63;12.30;;;;;;;;;;4971281;28;20397;-66
2024/01/06 09:44:55;;;;;;;17.83;12.48;;;;;;;;;;4971908;28;20050;-66
2024/01/06 09:47:23;;;;;;;17.60;12.23;;;;;;;;;;4971358;28;20034;-66
2024/01/06 09:49:50;;;;;;;17.33;12.32;;;;;;;;;;4971692;28;20449;-66
2024/01/06 09:52:19;;;;;;;18.25;12.98;;;;;;;;;;4970882;28;20085;-66
2024/01/06 09:54:51;;;;;;;17.67;12.02;;;;;;;;;;4978168;28;20081;-66
2024/01/06 09:57:17;;;;;;;18.02;12.65;;;;;;;;;;4991106;28;20126;-66
2024/01/06 09:59:46;;;;;;;15.25;12.00;;;;;;;;;;4976875;28;20046;-66
2024/01/06 10:02:17;;;;;;;14.80;11.18;;;;;;;;;;4971123;28;20043;-66
2024/01/06 10:04:46;;;;;;;16.35;11.85;;;;;;;;;;4971616;28;20035;-66
2024/01/06 10:07:13;;;;;;;17.60;11.65;;;;;;;;;;4981107;28;20046;-66
2024/01/06 10:09:40;;;;;;;15.73;11.13;;;;;;;;;;4990740;28;20100;-66
2024/01/06 10:12:06;;;;;;;12.88;10.38;;;;;;;;;;4975153;28;20122;-66
2024/01/06 10:14:33;;;;;;;14.85;10.88;;;;;;;;;;4971438;28;20069;-66
2024/01/06 10:16:59;;;;;;;16.02;11.77;;;;;;;;;;4970827;28;20662;-66
2024/01/06 10:19:25;;;;;;;14.88;10.68;;;;;;;;;;4970904;28;20078;-66
2024/01/06 10:21:51;;;;;;;16.13;11.10;;;;;;;;;;4970894;28;20089;-66
2024/01/06 10:24:20;;;;;;;15.82;11.63;;;;;;;;;;4970952;28;20078;-66
2024/01/06 10:26:46;;;;;;;18.23;11.57;;;;;;;;;;4970756;28;20105;-66
2024/01/06 10:29:13;;;;;;;15.75;11.07;;;;;;;;;;4970746;28;20126;-66
2024/01/06 10:31:39;;;;;;;16.58;11.35;;;;;;;;;;4970921;28;20039;-66
2024/01/06 10:34:06;;;;;;;16.27;11.68;;;;;;;;;;4988049;28;20034;-66
2024/01/06 10:36:32;;;;;;;17.48;11.98;;;;;;;;;;4971073;28;20101;-66
2024/01/06 10:38:58;;;;;;;16.95;11.57;;;;;;;;;;4970802;28;20126;-66
2024/01/06 10:41:25;;;;;;;16.25;12.00;;;;;;;;;;4971050;28;20093;-66
2024/01/06 10:43:51;;;;;;;17.50;12.07;;;;;;;;;;4970305;28;20042;-66
2024/01/06 10:46:19;;;;;;;15.48;11.40;;;;;;;;;;4970628;28;20655;-66
2024/01/06 10:48:46;;;;;;;18.55;12.95;;;;;;;;;;4970387;28;20038;-66
2024/01/06 10:51:13;;;;;;;19.27;13.05;;;;;;;;;;4971017;28;20085;-66
2024/01/06 10:53:40;;;;;;;18.40;12.98;;;;;;;;;;4969762;28;20086;-66
2024/01/06 10:56:07;;;;;;;16.83;12.10;;;;;;;;;;4986286;28;20046;-66
2024/01/06 10:58:37;;;;;;;17.77;11.75;;;;;;;;;;4986671;28;20054;-66
2024/01/06 11:01:04;;;;;;;16.05;12.55;;;;;;;;;;4970477;28;20170;-66
2024/01/06 11:03:30;;;;;;;16.98;12.05;;;;;;;;;;4970277;28;20062;-66
2024/01/06 11:05:57;;;;;;;16.83;11.82;;;;;;;;;;4970360;28;20046;-66
2024/01/06 11:08:23;;;;;;;15.93;10.98;;;;;;;;;;4969800;28;20320;-66
2024/01/06 11:10:50;;;;;;;16.17;11.00;;;;;;;;;;4970913;28;20470;-66
2024/01/06 11:13:21;;;;;;;16.40;11.30;;;;;;;;;;4971265;28;20030;-66
2024/01/06 11:15:49;;;;;;;15.30;11.05;;;;;;;;;;4982736;28;20093;-66
2024/01/06 11:18:33;;;;;;;17.50;11.35;;;;;;;;;;4989830;28;20042;-66
2024/01/06 11:21:18;;;;;;;14.65;10.00;;;;;;;;;;4970718;28;20089;-66
2024/01/06 11:23:44;;;;;;;16.38;10.95;;;;;;;;;;4969532;28;20062;-66
2024/01/06 11:26:10;;;;;;;16.08;11.60;;;;;;;;;;4969925;28;20043;-66
2024/01/06 11:28:46;;;;;;;15.85;11.23;;;;;;;;;;4971847;28;20351;-66
2024/01/06 11:31:12;;;;;;;15.02;11.23;;;;;;;;;;4977655;28;20456;-66
2024/01/06 11:33:47;;;;;;;14.25;10.25;;;;;;;;;;4974855;28;20482;-66
2024/01/06 11:36:14;;;;;;;14.43;10.10;;;;;;;;;;4970497;28;20051;-66
2024/01/06 11:38:41;;;;;;;14.18;10.35;;;;;;;;;;4972793;28;20076;-66
2024/01/06 11:41:11;;;;;;;15.05;10.85;;;;;;;;;;4989682;28;20050;-66
2024/01/06 11:43:39;;;;;;;15.57;10.88;;;;;;;;;;4978698;28;20042;-66
2024/01/06 11:46:07;;;;;;;14.68;10.60;;;;;;;;;;4970232;28;20049;-66
2024/01/06 11:48:33;;;;;;;14.30;10.60;;;;;;;;;;4969938;28;20057;-66
2024/01/06 11:50:59;;;;;;;15.13;10.85;;;;;;;;;;4969881;28;20042;-66
2024/01/06 11:53:30;;;;;;;15.77;11.70;;;;;;;;;;4969426;28;20424;-66
2024/01/06 11:55:56;;;;;;;14.10;10.43;;;;;;;;;;4969984;28;20441;-66
2024/01/06 11:58:22;;;;;;;16.17;11.13;;;;;;;;;;4969699;28;20185;-66
2024/01/06 12:00:57;;;;;;;16.00;10.85;;;;;;;;;;4969927;28;20050;-66
2024/01/06 12:03:23;;;;;;;15.63;10.98;;;;;;;;;;4978158;28;20057;-66
2024/01/06 12:06:02;;;;;;;16.42;11.07;;;;;;;;;;4991743;28;20092;-66
2024/01/06 12:08:29;;;;;;;16.30;10.95;;;;;;;;;;4976351;28;20129;-66
2024/01/06 12:11:04;;;;;;;15.02;11.00;;;;;;;;;;4973373;28;20047;-66
2024/01/06 12:13:30;;;;;;;16.90;10.93;;;;;;;;;;4954418;29;20047;-66
2024/01/06 12:15:56;;;;;;;15.23;11.23;;;;;;;;;;4965571;28;20074;-66
2024/01/06 12:18:25;;;;;;;16.42;11.38;;;;;;;;;;4973650;28;20077;-66
2024/01/06 12:20:52;;;;;;;15.63;11.38;;;;;;;;;;4992311;28;20046;-66
2024/01/06 12:23:28;;;;;;;20.45;11.55;;;;;;;;;;4985792;28;20045;-66
2024/01/06 12:25:54;;;;;;;18.90;11.50;;;;;;;;;;4972726;28;20080;-66
2024/01/06 12:28:20;;;;;;;21.02;11.57;;;;;;;;;;4971482;28;20070;-66
2024/01/06 12:30:46;;;;;;;17.15;11.88;;;;;;;;;;4972949;28;20121;-66
2024/01/06 12:33:13;;;;;;;14.68;10.60;;;;;;;;;;4984361;28;20042;-66
2024/01/06 12:35:40;;;;;;;16.15;11.20;;;;;;;;;;4982752;28;20442;-66
2024/01/06 12:38:07;;;;;;;16.42;10.77;;;;;;;;;;4973521;28;20566;-66
2024/01/06 12:40:32;;;;;;;17.17;11.50;;;;;;;;;;4973100;28;20646;-66
2024/01/06 12:42:58;;;;;;;15.77;11.45;;;;;;;;;;4976600;28;20117;-66
2024/01/06 12:45:24;;;;;;;17.02;11.07;;;;;;;;;;4991835;28;20117;-66
2024/01/06 12:47:51;;;;;;;16.92;10.73;;;;;;;;;;4982037;28;20039;-66
2024/01/06 12:50:18;;;;;;;17.52;11.73;;;;;;;;;;4972874;28;20047;-66
2024/01/06 12:52:45;;;;;;;17.70;11.73;;;;;;;;;;4973008;28;20082;-66
2024/01/06 12:55:11;;;;;;;16.33;11.38;;;;;;;;;;4977316;28;20075;-66
2024/01/06 12:57:37;;;;;;;18.52;11.50;;;;;;;;;;4992625;28;20046;-66
2024/01/06 13:00:05;;;;;;;16.88;11.60;;;;;;;;;;4979888;28;20063;-66
2024/01/06 13:02:31;;;;;;;18.13;11.48;;;;;;;;;;4973084;28;20454;-66
2024/01/06 13:04:57;;;;;;;16.45;11.43;;;;;;;;;;4971910;28;20185;-66
2024/01/06 13:07:23;;;;;;;17.73;11.55;;;;;;;;;;4972829;28;20114;-66
2024/01/06 13:09:50;;;;;;;18.85;11.95;;;;;;;;;;4972555;28;20042;-66
2024/01/06 13:12:18;;;;;;;19.10;12.57;;;;;;;;;;4983241;28;20038;-66
2024/01/06 13:14:47;;;;;;;17.83;12.20;;;;;;;;;;4990638;28;20569;-66
2024/01/06 13:17:14;;;;;;;21.35;12.02;;;;;;;;;;4972081;28;20473;-66
2024/01/06 13:19:40;;;;;;;17.60;11.48;;;;;;;;;;4972109;28;20520;-66
2024/01/06 13:22:06;;;;;;;16.33;11.73;;;;;;;;;;4972213;28;20485;-66
2024/01/06 13:24:32;;;;;;;19.00;12.43;;;;;;;;;;4986558;28;20034;-66
2024/01/06 13:26:59;;;;;;;19.05;12.45;;;;;;;;;;4980866;28;20090;-66
2024/01/06 13:29:25;;;;;;;19.70;12.88;;;;;;;;;;4979581;28;20046;-66
2024/01/06 13:31:52;;;;;;;17.50;11.38;;;;;;;;;;4981021;28;20069;-66
2024/01/06 13:34:18;;;;;;;18.48;11.52;;;;;;;;;;4972379;28;20054;-66
2024/01/06 13:36:44;;;;;;;18.83;12.57;;;;;;;;;;4987731;28;20046;-66
2024/01/06 13:39:19;;;;;;;19.88;13.27;;;;;;;;;;4987689;28;20039;-66
2024/01/06 13:41:45;;;;;;;19.33;12.57;;;;;;;;;;4971819;28;20101;-66
2024/01/06 13:44:11;;;;;;;18.55;12.13;;;;;;;;;;4972343;28;20034;-66
2024/01/06 13:46:37;;;;;;;18.85;11.93;;;;;;;;;;4971341;28;20125;-66
2024/01/06 13:49:03;;;;;;;18.27;12.60;;;;;;;;;;4971816;28;20125;-66
2024/01/06 13:51:29;;;;;;;18.25;11.85;;;;;;;;;;4971477;28;20047;-66
2024/01/06 13:53:55;;;;;;;16.95;11.13;;;;;;;;;;4971914;28;20441;-66
2024/01/06 13:56:22;;;;;;;17.48;12.25;;;;;;;;;;4970813;28;20043;-66
2024/01/06 13:58:48;;;;;;;17.42;11.75;;;;;;;;;;4954825;28;20469;-66
2024/01/06 14:01:14;;;;;;;17.08;11.23;;;;;;;;;;4990534;28;20069;-66
2024/01/06 14:03:40;;;;;;;18.63;11.98;;;;;;;;;;4984252;28;20493;-66
2024/01/06 14:06:07;;;;;;;17.02;11.35;;;;;;;;;;4970861;28;20078;-66
2024/01/06 14:08:33;;;;;;;15.88;10.93;;;;;;;;;;4971533;28;20711;-66
2024/01/06 14:10:59;;;;;;;17.02;11.48;;;;;;;;;;4971935;28;20047;-66
2024/01/06 14:13:25;;;;;;;14.43;10.50;;;;;;;;;;4971455;28;20093;-66